createdAt,value
2018-05-31T00:00:21.693Z,17.22
2018-05-31T00:01:21.707Z,17.28
2018-05-31T00:02:21.779Z,17.23
2018-05-31T00:03:21.762Z,17.21
2018-05-31T00:04:21.760Z,17.12
2018-05-31T00:05:21.776Z,17.15
2018-05-31T00:06:21.799Z,17.21
2018-05-31T00:07:21.817Z,17.21
2018-05-31T00:08:21.884Z,17.23
2018-05-31T00:09:21.932Z,17.23
2018-05-31T00:10:21.868Z,17.15
2018-05-31T00:11:21.887Z,17.15
2018-05-31T00:12:21.900Z,17.04
2018-05-31T00:13:21.922Z,17.04
2018-05-31T00:14:21.995Z,17.07
2018-05-31T00:15:21.955Z,16.96
2018-05-31T00:16:21.969Z,17.03
2018-05-31T00:17:21.987Z,17.06
2018-05-31T00:18:22.020Z,17.08
2018-05-31T00:19:22.022Z,17.08
2018-05-31T00:20:22.096Z,17.08
2018-05-31T00:21:22.063Z,17.08
2018-05-31T00:22:22.072Z,17.11
2018-05-31T00:23:22.091Z,17.12
2018-05-31T00:24:22.106Z,17.08
2018-05-31T00:25:22.127Z,17.11
2018-05-31T00:26:22.201Z,17.08
2018-05-31T00:27:22.163Z,17.00
2018-05-31T00:28:22.181Z,16.98
2018-05-31T00:29:22.198Z,16.97
2018-05-31T00:30:22.219Z,16.88
2018-05-31T00:31:22.229Z,16.75
2018-05-31T00:32:22.303Z,16.71
2018-05-31T00:33:22.270Z,16.68
2018-05-31T00:34:22.360Z,16.68
2018-05-31T00:35:22.298Z,16.64
2018-05-31T00:36:22.321Z,16.57
2018-05-31T00:37:22.341Z,16.64
2018-05-31T00:38:22.403Z,16.61
2018-05-31T00:39:22.376Z,16.58
2018-05-31T00:40:22.435Z,16.64
2018-05-31T00:41:22.407Z,16.52
2018-05-31T00:42:22.429Z,16.50
2018-05-31T00:43:22.445Z,16.50
2018-05-31T00:44:22.508Z,16.56
2018-05-31T00:45:22.476Z,16.48
2018-05-31T00:46:22.511Z,16.46
2018-05-31T00:47:22.511Z,16.43
2018-05-31T00:48:22.531Z,16.42
2018-05-31T00:49:22.548Z,16.30
2018-05-31T00:50:22.621Z,16.28
2018-05-31T00:51:22.597Z,16.33
2018-05-31T00:52:22.634Z,16.28
2018-05-31T00:53:22.619Z,16.27
2018-05-31T00:54:22.632Z,16.15
2018-05-31T00:55:22.655Z,16.23
2018-05-31T00:56:22.724Z,16.15
2018-05-31T00:57:22.685Z,16.15
2018-05-31T00:58:22.703Z,16.09
2018-05-31T00:59:22.717Z,16.05
2018-05-31T01:00:22.733Z,16.05
2018-05-31T01:01:22.760Z,16.01
2018-05-31T01:02:22.823Z,16.01
2018-05-31T01:03:22.789Z,16.01
2018-05-31T01:04:22.807Z,15.96
2018-05-31T01:05:22.899Z,16.00
2018-05-31T01:06:22.840Z,16.01
2018-05-31T01:07:22.855Z,16.01
2018-05-31T01:08:22.924Z,16.01
2018-05-31T01:09:22.895Z,15.96
2018-05-31T01:10:22.913Z,15.93
2018-05-31T01:11:22.969Z,16.01
2018-05-31T01:12:22.942Z,15.94
2018-05-31T01:13:23.003Z,15.97
2018-05-31T01:14:23.028Z,15.84
2018-05-31T01:15:22.995Z,15.86
2018-05-31T01:16:23.011Z,15.89
2018-05-31T01:17:23.063Z,15.83
2018-05-31T01:18:23.049Z,15.90
2018-05-31T01:19:23.060Z,15.87
2018-05-31T01:20:23.132Z,15.84
2018-05-31T01:21:23.095Z,15.83
2018-05-31T01:22:23.110Z,15.78
2018-05-31T01:23:23.141Z,15.76
2018-05-31T01:24:23.149Z,15.78
2018-05-31T01:25:23.162Z,15.86
2018-05-31T01:26:23.237Z,15.80
2018-05-31T01:27:23.194Z,15.84
2018-05-31T01:28:23.212Z,15.80
2018-05-31T01:29:23.232Z,15.74
2018-05-31T01:30:23.252Z,15.83
2018-05-31T01:31:23.271Z,15.76
2018-05-31T01:32:23.335Z,15.87
2018-05-31T01:33:23.300Z,15.84
2018-05-31T01:34:23.318Z,15.87
2018-05-31T01:35:23.381Z,15.89
2018-05-31T01:36:23.361Z,15.89
2018-05-31T01:37:23.367Z,15.84
2018-05-31T01:38:23.432Z,15.86
2018-05-31T01:39:23.401Z,15.86
2018-05-31T01:40:23.420Z,16.01
2018-05-31T01:41:23.439Z,15.96
2018-05-31T01:42:23.453Z,15.89
2018-05-31T01:43:23.469Z,15.94
2018-05-31T01:44:23.589Z,15.90
2018-05-31T01:45:23.514Z,15.87
2018-05-31T01:46:23.519Z,15.96
2018-05-31T01:47:23.539Z,15.96
2018-05-31T01:48:23.554Z,15.94
2018-05-31T01:49:23.580Z,15.96
2018-05-31T01:50:23.637Z,15.90
2018-05-31T01:51:23.631Z,15.89
2018-05-31T01:52:23.626Z,15.87
2018-05-31T01:53:23.648Z,15.86
2018-05-31T01:54:23.662Z,15.86
2018-05-31T01:55:23.678Z,15.83
2018-05-31T01:56:23.742Z,15.82
2018-05-31T01:57:23.711Z,15.74
2018-05-31T01:58:23.725Z,15.65
2018-05-31T01:59:23.746Z,15.71
2018-05-31T02:00:23.774Z,15.74
2018-05-31T02:01:23.777Z,15.65
2018-05-31T02:02:23.857Z,15.84
2018-05-31T02:03:23.812Z,15.75
2018-05-31T02:04:23.832Z,15.68
2018-05-31T02:05:23.844Z,15.76
2018-05-31T02:06:23.874Z,15.76
2018-05-31T02:07:23.879Z,15.80
2018-05-31T02:08:23.948Z,15.86
2018-05-31T02:09:23.914Z,15.87
2018-05-31T02:10:23.936Z,15.76
2018-05-31T02:11:23.949Z,15.87
2018-05-31T02:12:23.968Z,15.75
2018-05-31T02:13:23.988Z,15.68
2018-05-31T02:14:24.053Z,15.71
2018-05-31T02:15:24.032Z,15.71
2018-05-31T02:16:24.031Z,15.74
2018-05-31T02:17:24.053Z,15.80
2018-05-31T02:18:24.067Z,15.72
2018-05-31T02:19:24.092Z,15.68
2018-05-31T02:20:24.155Z,15.75
2018-05-31T02:21:24.115Z,15.65
2018-05-31T02:22:24.140Z,15.71
2018-05-31T02:23:24.153Z,15.67
2018-05-31T02:24:24.167Z,15.64
2018-05-31T02:25:24.266Z,15.67
2018-05-31T02:26:24.257Z,15.60
2018-05-31T02:27:24.230Z,15.67
2018-05-31T02:28:24.241Z,15.67
2018-05-31T02:29:24.258Z,15.57
2018-05-31T02:30:24.275Z,15.57
2018-05-31T02:31:24.336Z,15.60
2018-05-31T02:32:24.359Z,15.64
2018-05-31T02:33:24.318Z,15.72
2018-05-31T02:34:24.340Z,15.67
2018-05-31T02:35:24.353Z,15.64
2018-05-31T02:36:24.370Z,15.67
2018-05-31T02:37:24.387Z,15.69
2018-05-31T02:38:24.463Z,15.68
2018-05-31T02:39:24.423Z,15.67
2018-05-31T02:40:24.444Z,15.68
2018-05-31T02:41:24.463Z,15.62
2018-05-31T02:42:24.480Z,15.65
2018-05-31T02:43:24.500Z,15.65
2018-05-31T02:44:24.559Z,15.65
2018-05-31T02:45:24.525Z,15.60
2018-05-31T02:46:24.538Z,15.67
2018-05-31T02:47:24.555Z,15.60
2018-05-31T02:48:24.573Z,15.60
2018-05-31T02:49:24.603Z,15.57
2018-05-31T02:50:24.677Z,15.60
2018-05-31T02:51:24.630Z,15.57
2018-05-31T02:52:24.652Z,15.57
2018-05-31T02:53:24.669Z,15.64
2018-05-31T02:54:24.680Z,15.59
2018-05-31T02:55:24.696Z,15.59
2018-05-31T02:56:24.827Z,15.60
2018-05-31T02:57:24.729Z,15.60
2018-05-31T02:58:24.745Z,15.56
2018-05-31T02:59:24.765Z,15.53
2018-05-31T03:00:24.778Z,15.59
2018-05-31T03:01:24.800Z,15.62
2018-05-31T03:02:24.939Z,15.59
2018-05-31T03:03:24.834Z,15.60
2018-05-31T03:04:24.852Z,15.62
2018-05-31T03:05:24.865Z,15.56
2018-05-31T03:06:24.883Z,15.49
2018-05-31T03:07:24.896Z,15.47
2018-05-31T03:08:25.017Z,15.47
2018-05-31T03:09:24.938Z,15.56
2018-05-31T03:10:24.950Z,15.60
2018-05-31T03:11:24.970Z,15.56
2018-05-31T03:12:24.981Z,15.64
2018-05-31T03:13:25.000Z,15.59
2018-05-31T03:14:25.013Z,15.62
2018-05-31T03:15:25.031Z,15.64
2018-05-31T03:16:25.049Z,15.65
2018-05-31T03:17:25.069Z,15.68
2018-05-31T03:18:25.088Z,15.76
2018-05-31T03:19:25.102Z,15.62
2018-05-31T03:20:25.169Z,15.71
2018-05-31T03:21:25.137Z,15.68
2018-05-31T03:22:25.155Z,15.67
2018-05-31T03:23:25.167Z,15.68
2018-05-31T03:24:25.188Z,15.56
2018-05-31T03:25:25.205Z,15.57
2018-05-31T03:26:25.271Z,15.59
2018-05-31T03:27:25.252Z,15.64
2018-05-31T03:28:25.257Z,15.59
2018-05-31T03:29:25.284Z,15.64
2018-05-31T03:30:25.293Z,15.69
2018-05-31T03:31:25.303Z,15.65
2018-05-31T03:32:25.368Z,15.71
2018-05-31T03:33:25.396Z,15.71
2018-05-31T03:34:25.351Z,15.68
2018-05-31T03:35:25.379Z,15.65
2018-05-31T03:36:25.392Z,15.69
2018-05-31T03:37:25.408Z,15.68
2018-05-31T03:38:25.470Z,15.69
2018-05-31T03:39:25.435Z,15.67
2018-05-31T03:40:25.453Z,15.59
2018-05-31T03:41:25.477Z,15.64
2018-05-31T03:42:25.495Z,15.59
2018-05-31T03:43:25.505Z,15.54
2018-05-31T03:44:25.612Z,15.64
2018-05-31T03:45:25.563Z,15.56
2018-05-31T03:46:25.562Z,15.57
2018-05-31T03:47:25.590Z,15.62
2018-05-31T03:48:25.591Z,15.54
2018-05-31T03:49:25.613Z,15.59
2018-05-31T03:50:25.682Z,15.54
2018-05-31T03:51:25.644Z,15.54
2018-05-31T03:52:25.658Z,15.47
2018-05-31T03:53:25.677Z,15.44
2018-05-31T03:54:25.697Z,15.38
2018-05-31T03:55:25.712Z,15.38
2018-05-31T03:56:25.775Z,15.41
2018-05-31T03:57:25.745Z,15.44
2018-05-31T03:58:25.763Z,15.36
2018-05-31T03:59:25.778Z,15.35
2018-05-31T04:00:25.801Z,15.39
2018-05-31T04:01:25.820Z,15.41
2018-05-31T04:02:25.828Z,15.39
2018-05-31T04:03:25.885Z,15.41
2018-05-31T04:04:25.900Z,15.41
2018-05-31T04:05:25.883Z,15.35
2018-05-31T04:06:25.897Z,15.41
2018-05-31T04:07:25.917Z,15.47
2018-05-31T04:08:25.981Z,15.41
2018-05-31T04:09:25.971Z,15.49
2018-05-31T04:10:25.967Z,15.38
2018-05-31T04:11:25.985Z,15.38
2018-05-31T04:12:26.001Z,15.41
2018-05-31T04:13:26.013Z,15.43
2018-05-31T04:14:26.083Z,15.47
2018-05-31T04:15:26.052Z,15.39
2018-05-31T04:16:26.066Z,15.51
2018-05-31T04:17:26.085Z,15.39
2018-05-31T04:18:26.098Z,15.38
2018-05-31T04:19:26.118Z,15.34
2018-05-31T04:20:26.189Z,15.36
2018-05-31T04:21:26.166Z,15.34
2018-05-31T04:22:26.169Z,15.39
2018-05-31T04:23:26.190Z,15.34
2018-05-31T04:24:26.202Z,15.46
2018-05-31T04:25:26.224Z,15.43
2018-05-31T04:26:26.287Z,15.36
2018-05-31T04:27:26.254Z,15.35
2018-05-31T04:28:26.276Z,15.27
2018-05-31T04:29:26.288Z,15.34
2018-05-31T04:30:26.308Z,15.31
2018-05-31T04:31:26.319Z,15.38
2018-05-31T04:32:26.386Z,15.29
2018-05-31T04:33:26.356Z,15.17
2018-05-31T04:34:26.375Z,15.21
2018-05-31T04:35:26.391Z,15.21
2018-05-31T04:36:26.407Z,15.28
2018-05-31T04:37:26.428Z,15.11
2018-05-31T04:38:26.494Z,15.20
2018-05-31T04:39:26.460Z,15.14
2018-05-31T04:40:26.474Z,15.10
2018-05-31T04:41:26.496Z,15.16
2018-05-31T04:42:26.530Z,15.09
2018-05-31T04:43:26.524Z,15.11
2018-05-31T04:44:26.544Z,15.10
2018-05-31T04:45:26.557Z,15.11
2018-05-31T04:46:26.608Z,15.14
2018-05-31T04:47:26.591Z,15.03
2018-05-31T04:48:26.613Z,15.13
2018-05-31T04:49:26.627Z,15.09
2018-05-31T04:50:26.641Z,15.03
2018-05-31T04:51:26.660Z,15.09
2018-05-31T04:52:26.771Z,15.14
2018-05-31T04:53:26.784Z,15.07
2018-05-31T04:54:26.712Z,15.14
2018-05-31T04:55:26.723Z,15.06
2018-05-31T04:56:26.745Z,15.07
2018-05-31T04:57:26.763Z,15.03
2018-05-31T04:58:26.810Z,15.03
2018-05-31T04:59:26.796Z,15.03
2018-05-31T05:00:26.810Z,15.06
2018-05-31T05:01:26.830Z,15.03
2018-05-31T05:02:26.846Z,15.06
2018-05-31T05:03:26.863Z,15.02
2018-05-31T05:04:26.881Z,15.10
2018-05-31T05:05:26.894Z,14.96
2018-05-31T05:06:26.917Z,15.19
2018-05-31T05:07:26.928Z,15.03
2018-05-31T05:08:26.948Z,15.01
2018-05-31T05:09:26.966Z,15.07
2018-05-31T05:10:27.052Z,15.06
2018-05-31T05:11:26.995Z,15.16
2018-05-31T05:12:27.020Z,15.07
2018-05-31T05:13:27.035Z,15.10
2018-05-31T05:14:27.051Z,15.10
2018-05-31T05:15:27.067Z,15.02
2018-05-31T05:16:27.164Z,15.02
2018-05-31T05:17:27.104Z,15.03
2018-05-31T05:18:27.119Z,14.99
2018-05-31T05:19:27.151Z,15.01
2018-05-31T05:20:27.152Z,15.02
2018-05-31T05:21:27.168Z,15.03
2018-05-31T05:22:27.210Z,15.03
2018-05-31T05:23:27.206Z,14.96
2018-05-31T05:24:27.222Z,14.98
2018-05-31T05:25:27.240Z,15.03
2018-05-31T05:26:27.259Z,15.13
2018-05-31T05:27:27.272Z,15.19
2018-05-31T05:28:27.283Z,15.14
2018-05-31T05:29:27.299Z,15.14
2018-05-31T05:30:27.320Z,15.14
2018-05-31T05:31:27.340Z,15.27
2018-05-31T05:32:27.358Z,15.11
2018-05-31T05:33:27.371Z,15.13
2018-05-31T05:34:27.388Z,15.11
2018-05-31T05:35:27.408Z,15.13
2018-05-31T05:36:27.426Z,15.11
2018-05-31T05:37:27.445Z,15.14
2018-05-31T05:38:27.460Z,15.17
2018-05-31T05:39:27.473Z,15.13
2018-05-31T05:40:27.492Z,15.13
2018-05-31T05:41:27.511Z,15.02
2018-05-31T05:42:27.525Z,15.02
2018-05-31T05:43:27.540Z,14.92
2018-05-31T05:44:27.562Z,14.92
2018-05-31T05:45:27.577Z,14.94
2018-05-31T05:46:27.596Z,14.75
2018-05-31T05:47:27.614Z,14.75
2018-05-31T05:48:27.627Z,14.75
2018-05-31T05:49:27.641Z,14.86
2018-05-31T05:50:27.672Z,14.81
2018-05-31T05:51:27.675Z,14.91
2018-05-31T05:52:27.693Z,14.91
2018-05-31T05:53:27.715Z,14.81
2018-05-31T05:54:27.734Z,14.88
2018-05-31T05:55:27.808Z,14.83
2018-05-31T05:56:27.855Z,14.92
2018-05-31T05:57:27.801Z,14.92
2018-05-31T05:58:27.862Z,15.07
2018-05-31T05:59:27.889Z,15.06
2018-05-31T06:00:27.863Z,15.13
2018-05-31T06:01:27.863Z,15.14
2018-05-31T06:02:27.868Z,15.17
2018-05-31T06:03:27.880Z,15.16
2018-05-31T06:04:27.901Z,15.28
2018-05-31T06:05:27.924Z,15.35
2018-05-31T06:06:27.942Z,15.25
2018-05-31T06:07:27.950Z,15.35
2018-05-31T06:08:27.970Z,15.36
2018-05-31T06:09:27.984Z,15.46
2018-05-31T06:10:28.003Z,15.39
2018-05-31T06:11:28.019Z,15.39
2018-05-31T06:12:28.037Z,15.51
2018-05-31T06:13:28.054Z,15.50
2018-05-31T06:14:28.076Z,15.44
2018-05-31T06:15:28.119Z,15.62
2018-05-31T06:16:28.104Z,15.65
2018-05-31T06:17:28.167Z,15.65
2018-05-31T06:18:28.148Z,15.67
2018-05-31T06:19:28.163Z,15.60
2018-05-31T06:20:28.181Z,15.60
2018-05-31T06:21:28.196Z,15.65
2018-05-31T06:22:28.208Z,15.62
2018-05-31T06:23:28.223Z,15.65
2018-05-31T06:24:28.289Z,15.67
2018-05-31T06:25:28.272Z,15.74
2018-05-31T06:26:28.372Z,15.62
2018-05-31T06:27:28.295Z,15.60
2018-05-31T06:28:28.309Z,15.75
2018-05-31T06:29:28.334Z,15.75
2018-05-31T06:30:28.348Z,15.84
2018-05-31T06:31:28.369Z,15.89
2018-05-31T06:32:28.379Z,15.97
2018-05-31T06:33:28.419Z,16.08
2018-05-31T06:34:28.418Z,16.12
2018-05-31T06:35:28.433Z,16.12
2018-05-31T06:36:28.463Z,16.38
2018-05-31T06:37:28.538Z,16.38
2018-05-31T06:38:28.489Z,16.48
2018-05-31T06:39:28.502Z,16.70
2018-05-31T06:40:28.522Z,16.88
2018-05-31T06:41:28.540Z,17.08
2018-05-31T06:42:28.619Z,17.07
2018-05-31T06:43:28.578Z,17.16
2018-05-31T06:44:28.595Z,17.26
2018-05-31T06:45:28.613Z,17.41
2018-05-31T06:46:28.628Z,17.41
2018-05-31T06:47:28.647Z,17.37
2018-05-31T06:48:28.736Z,17.48
2018-05-31T06:49:28.681Z,17.55
2018-05-31T06:50:28.697Z,17.64
2018-05-31T06:51:28.713Z,17.72
2018-05-31T06:52:28.729Z,17.89
2018-05-31T06:53:28.750Z,17.97
2018-05-31T06:54:28.770Z,17.96
2018-05-31T06:55:28.800Z,18.21
2018-05-31T06:56:28.806Z,18.17
2018-05-31T06:57:28.820Z,17.99
2018-05-31T06:58:28.846Z,18.12
2018-05-31T06:59:28.864Z,18.26
2018-05-31T07:00:28.879Z,18.25
2018-05-31T07:01:28.897Z,18.30
2018-05-31T07:02:28.923Z,18.27
2018-05-31T07:03:28.928Z,18.29
2018-05-31T07:04:28.948Z,18.52
2018-05-31T07:05:28.975Z,18.52
2018-05-31T07:06:28.987Z,18.76
2018-05-31T07:07:29.009Z,18.81
2018-05-31T07:08:29.019Z,18.78
2018-05-31T07:09:29.048Z,18.94
2018-05-31T07:10:29.056Z,19.13
2018-05-31T07:11:29.082Z,18.94
2018-05-31T07:12:29.116Z,18.94
2018-05-31T07:13:29.117Z,18.90
2018-05-31T07:14:29.137Z,19.06
2018-05-31T07:15:29.150Z,19.08
2018-05-31T07:16:29.166Z,19.28
2018-05-31T07:17:29.190Z,19.32
2018-05-31T07:18:29.303Z,19.39
2018-05-31T07:19:29.225Z,19.58
2018-05-31T07:20:29.244Z,19.65
2018-05-31T07:21:29.267Z,19.44
2018-05-31T07:22:29.318Z,19.37
2018-05-31T07:23:29.306Z,19.40
2018-05-31T07:24:29.327Z,19.46
2018-05-31T07:25:29.338Z,19.51
2018-05-31T07:26:29.359Z,19.61
2018-05-31T07:27:29.376Z,19.39
2018-05-31T07:28:29.409Z,19.25
2018-05-31T07:29:29.415Z,19.13
2018-05-31T07:30:29.434Z,19.36
2018-05-31T07:31:29.453Z,19.50
2018-05-31T07:32:29.467Z,19.68
2018-05-31T07:33:29.491Z,19.62
2018-05-31T07:34:29.509Z,19.98
2018-05-31T07:35:29.529Z,20.18
2018-05-31T07:36:29.543Z,20.36
2018-05-31T07:37:29.570Z,20.62
2018-05-31T07:38:29.588Z,20.64
2018-05-31T07:39:29.602Z,20.41
2018-05-31T07:40:29.620Z,20.06
2018-05-31T07:41:29.640Z,20.38
2018-05-31T07:42:29.661Z,20.21
2018-05-31T07:43:29.684Z,20.48
2018-05-31T07:44:29.699Z,20.62
2018-05-31T07:45:29.719Z,20.69
2018-05-31T07:46:29.741Z,20.92
2018-05-31T07:47:29.759Z,20.99
2018-05-31T07:48:29.776Z,20.73
2018-05-31T07:49:29.882Z,21.07
2018-05-31T07:50:29.819Z,21.21
2018-05-31T07:51:29.836Z,21.28
2018-05-31T07:52:29.861Z,21.35
2018-05-31T07:53:29.878Z,21.34
2018-05-31T07:54:29.891Z,21.37
2018-05-31T07:55:29.912Z,21.42
2018-05-31T07:56:29.932Z,21.47
2018-05-31T07:57:29.960Z,21.35
2018-05-31T07:58:29.978Z,21.59
2018-05-31T07:59:29.995Z,21.47
2018-05-31T08:00:30.029Z,21.71
2018-05-31T08:01:30.032Z,21.99
2018-05-31T08:02:30.050Z,21.82
2018-05-31T08:03:30.077Z,21.96
2018-05-31T08:04:30.095Z,22.06
2018-05-31T08:05:30.119Z,21.68
2018-05-31T08:06:30.138Z,21.80
2018-05-31T08:07:30.151Z,21.62
2018-05-31T08:08:30.209Z,22.20
2018-05-31T08:09:30.197Z,22.10
2018-05-31T08:10:30.225Z,22.43
2018-05-31T08:11:30.231Z,22.36
2018-05-31T08:12:30.257Z,21.90
2018-05-31T08:13:30.275Z,21.34
2018-05-31T08:14:30.298Z,20.89
2018-05-31T08:15:30.322Z,20.35
2018-05-31T08:16:30.342Z,19.74
2018-05-31T08:17:30.361Z,19.26
2018-05-31T08:18:30.379Z,19.07
2018-05-31T08:19:30.414Z,18.88
2018-05-31T08:20:30.419Z,18.81
2018-05-31T08:21:30.439Z,18.82
2018-05-31T08:22:30.461Z,18.80
2018-05-31T08:23:30.481Z,18.90
2018-05-31T08:24:30.496Z,18.76
2018-05-31T08:25:30.522Z,18.87
2018-05-31T08:26:30.535Z,18.76
2018-05-31T08:27:30.558Z,18.73
2018-05-31T08:28:30.580Z,18.84
2018-05-31T08:29:30.595Z,18.73
2018-05-31T08:30:30.615Z,18.70
2018-05-31T08:31:30.723Z,18.72
2018-05-31T08:32:30.649Z,18.73
2018-05-31T08:33:30.673Z,18.78
2018-05-31T08:34:30.692Z,18.75
2018-05-31T08:35:30.708Z,18.84
2018-05-31T08:36:30.725Z,18.94
2018-05-31T08:37:30.763Z,18.90
2018-05-31T08:38:30.761Z,19.10
2018-05-31T08:39:30.786Z,19.10
2018-05-31T08:40:30.799Z,19.13
2018-05-31T08:41:30.821Z,19.39
2018-05-31T08:42:30.842Z,19.43
2018-05-31T08:43:30.886Z,19.69
2018-05-31T08:44:30.878Z,19.86
2018-05-31T08:45:30.899Z,20.23
2018-05-31T08:46:30.915Z,20.80
2018-05-31T08:47:30.946Z,21.32
2018-05-31T08:48:30.947Z,21.69
2018-05-31T08:49:30.985Z,21.71
2018-05-31T08:50:30.999Z,21.52
2018-05-31T08:51:31.006Z,21.13
2018-05-31T08:52:31.027Z,21.61
2018-05-31T08:53:31.044Z,22.05
2018-05-31T08:54:31.067Z,21.74
2018-05-31T08:55:31.081Z,22.27
2018-05-31T08:56:31.103Z,22.57
2018-05-31T08:57:31.124Z,23.31
2018-05-31T08:58:31.149Z,23.76
2018-05-31T08:59:31.166Z,24.12
2018-05-31T09:00:31.179Z,24.10
2018-05-31T09:01:31.210Z,24.10
2018-05-31T09:02:31.227Z,24.22
2018-05-31T09:03:31.250Z,23.97
2018-05-31T09:04:31.262Z,24.00
2018-05-31T09:05:31.283Z,23.90
2018-05-31T09:06:31.307Z,24.03
2018-05-31T09:07:31.343Z,24.39
2018-05-31T09:08:31.345Z,24.52
2018-05-31T09:09:31.419Z,24.67
2018-05-31T09:11:31.409Z,24.47
2018-05-31T09:12:31.427Z,24.65
2018-05-31T09:13:31.529Z,24.49
2018-05-31T09:14:31.477Z,24.20
2018-05-31T09:15:31.498Z,23.72
2018-05-31T09:16:31.517Z,24.09
2018-05-31T09:17:31.538Z,24.00
2018-05-31T09:18:31.559Z,23.80
2018-05-31T09:19:31.635Z,23.88
2018-05-31T09:20:31.600Z,23.80
2018-05-31T09:21:31.626Z,23.79
2018-05-31T09:22:31.644Z,24.08
2018-05-31T09:23:31.665Z,24.15
2018-05-31T09:24:31.690Z,23.90
2018-05-31T09:25:31.710Z,23.28
2018-05-31T09:26:31.734Z,23.01
2018-05-31T09:27:31.762Z,22.37
2018-05-31T09:28:31.838Z,22.05
2018-05-31T09:29:31.802Z,22.06
2018-05-31T09:30:31.821Z,22.22
2018-05-31T09:31:31.846Z,22.20
2018-05-31T09:32:31.862Z,22.22
2018-05-31T09:33:31.879Z,22.47
2018-05-31T09:34:31.902Z,23.33
2018-05-31T09:35:31.929Z,24.37
2018-05-31T09:36:31.949Z,24.52
2018-05-31T09:37:32.019Z,24.52
2018-05-31T09:38:31.988Z,24.55
2018-05-31T09:39:32.012Z,24.93
2018-05-31T09:40:32.035Z,25.51
2018-05-31T09:41:32.054Z,25.27
2018-05-31T09:42:32.083Z,24.20
2018-05-31T09:43:32.149Z,23.54
2018-05-31T09:44:32.119Z,23.42
2018-05-31T09:45:32.163Z,23.20
2018-05-31T09:46:32.226Z,22.85
2018-05-31T09:47:32.182Z,22.57
2018-05-31T09:48:32.259Z,21.91
2018-05-31T09:49:32.228Z,21.96
2018-05-31T09:50:32.254Z,21.74
2018-05-31T09:51:32.322Z,21.80
2018-05-31T09:52:32.295Z,21.46
2018-05-31T09:53:32.316Z,21.46
2018-05-31T09:54:32.388Z,21.46
2018-05-31T09:55:32.360Z,21.46
2018-05-31T09:56:32.381Z,20.76
2018-05-31T09:57:32.452Z,20.38
2018-05-31T09:58:32.424Z,20.16
2018-05-31T09:59:32.439Z,19.95
2018-05-31T10:00:32.517Z,19.51
2018-05-31T10:01:32.483Z,18.91
2018-05-31T10:02:32.504Z,18.51
2018-05-31T10:03:32.528Z,18.67
2018-05-31T10:04:32.547Z,18.76
2018-05-31T10:05:32.562Z,18.92
2018-05-31T10:06:32.583Z,18.84
2018-05-31T10:07:32.604Z,18.91
2018-05-31T10:08:32.625Z,19.87
2018-05-31T10:09:32.642Z,20.67
2018-05-31T10:10:32.659Z,21.52
2018-05-31T10:11:32.682Z,21.86
2018-05-31T10:12:32.748Z,22.24
2018-05-31T10:13:32.715Z,23.07
2018-05-31T10:14:32.738Z,23.33
2018-05-31T10:15:32.753Z,22.91
2018-05-31T10:16:32.774Z,21.71
2018-05-31T10:17:32.806Z,20.72
2018-05-31T10:18:32.864Z,20.50
2018-05-31T10:19:32.835Z,20.61
2018-05-31T10:20:32.857Z,21.06
2018-05-31T10:21:32.878Z,21.75
2018-05-31T10:22:32.899Z,21.42
2018-05-31T10:23:32.916Z,21.21
2018-05-31T10:24:32.932Z,20.69
2018-05-31T10:25:32.952Z,21.94
2018-05-31T10:26:32.971Z,23.02
2018-05-31T10:27:32.992Z,23.66
2018-05-31T10:28:33.018Z,24.16
2018-05-31T10:29:33.032Z,23.57
2018-05-31T10:30:33.057Z,23.36
2018-05-31T10:31:33.076Z,23.46
2018-05-31T10:32:33.096Z,23.57
2018-05-31T10:33:33.119Z,23.00
2018-05-31T10:34:33.138Z,22.54
2018-05-31T10:35:33.157Z,21.72
2018-05-31T10:36:33.230Z,21.35
2018-05-31T10:37:33.201Z,21.46
2018-05-31T10:38:33.224Z,21.35
2018-05-31T10:39:33.337Z,21.01
2018-05-31T10:40:33.259Z,20.52
2018-05-31T10:41:33.278Z,20.42
2018-05-31T10:42:33.348Z,20.52
2018-05-31T10:43:33.319Z,20.14
2018-05-31T10:44:33.341Z,20.13
2018-05-31T10:45:33.362Z,19.84
2018-05-31T10:46:33.397Z,19.95
2018-05-31T10:47:33.407Z,20.13
2018-05-31T10:48:33.471Z,20.16
2018-05-31T10:49:33.441Z,20.16
2018-05-31T10:50:33.456Z,20.05
2018-05-31T10:51:33.478Z,19.51
2018-05-31T10:52:33.496Z,19.23
2018-05-31T10:53:33.520Z,19.36
2018-05-31T10:54:33.539Z,19.69
2018-05-31T10:55:33.561Z,19.94
2018-05-31T10:56:33.574Z,20.11
2018-05-31T10:57:33.595Z,20.16
2018-05-31T10:58:33.622Z,20.31
2018-05-31T10:59:33.638Z,20.24
2018-05-31T11:00:33.654Z,20.62
2018-05-31T11:01:33.671Z,20.59
2018-05-31T11:03:33.714Z,20.54
2018-05-31T11:04:33.730Z,20.73
2018-05-31T11:05:33.749Z,20.85
2018-05-31T11:06:33.774Z,20.79
2018-05-31T11:07:33.790Z,20.98
2018-05-31T11:08:33.817Z,20.80
2018-05-31T11:09:33.848Z,20.73
2018-05-31T11:10:33.849Z,20.32
2018-05-31T11:11:33.865Z,20.28
2018-05-31T11:12:33.886Z,20.42
2018-05-31T11:13:33.908Z,20.36
2018-05-31T11:14:33.926Z,20.23
2018-05-31T11:15:33.944Z,20.28
2018-05-31T11:16:33.995Z,20.11
2018-05-31T11:17:33.985Z,20.01
2018-05-31T11:18:33.999Z,19.94
2018-05-31T11:19:34.019Z,19.88
2018-05-31T11:20:34.038Z,19.98
2018-05-31T11:21:34.055Z,20.42
2018-05-31T11:22:34.073Z,20.57
2018-05-31T11:23:34.099Z,20.87
2018-05-31T11:24:34.163Z,21.06
2018-05-31T11:25:34.137Z,21.21
2018-05-31T11:26:34.156Z,21.34
2018-05-31T11:27:34.169Z,21.35
2018-05-31T11:28:34.189Z,21.40
2018-05-31T11:29:34.212Z,21.37
2018-05-31T11:30:34.279Z,21.42
2018-05-31T11:31:34.259Z,21.52
2018-05-31T11:32:34.266Z,21.62
2018-05-31T11:33:34.289Z,22.05
2018-05-31T11:34:34.336Z,22.25
2018-05-31T11:35:34.323Z,22.55
2018-05-31T11:36:34.396Z,22.61
2018-05-31T11:37:34.368Z,22.85
2018-05-31T11:38:34.383Z,23.10
2018-05-31T11:39:34.409Z,23.53
2018-05-31T11:40:34.487Z,23.79
2018-05-31T11:41:34.573Z,23.85
2018-05-31T11:42:34.461Z,23.72
2018-05-31T11:43:34.483Z,23.70
2018-05-31T11:44:34.498Z,23.70
2018-05-31T11:45:34.525Z,24.06
2018-05-31T11:46:34.546Z,23.80
2018-05-31T11:47:34.564Z,24.22
2018-05-31T11:48:34.585Z,24.03
2018-05-31T11:49:34.600Z,24.18
2018-05-31T11:50:34.622Z,23.93
2018-05-31T11:51:34.651Z,23.69
2018-05-31T11:52:34.661Z,23.47
2018-05-31T11:53:34.689Z,23.40
2018-05-31T11:54:34.760Z,23.27
2018-05-31T11:55:34.726Z,23.36
2018-05-31T11:56:34.748Z,23.15
2018-05-31T11:57:34.774Z,23.39
2018-05-31T11:58:34.806Z,23.33
2018-05-31T11:59:34.815Z,23.40
2018-05-31T12:00:34.841Z,23.28
2018-05-31T12:01:34.858Z,23.19
2018-05-31T12:02:34.876Z,23.19
2018-05-31T12:03:34.891Z,23.02
2018-05-31T12:04:34.912Z,22.83
2018-05-31T12:05:35.027Z,22.83
2018-05-31T12:06:35.012Z,22.82
2018-05-31T12:07:34.974Z,22.95
2018-05-31T12:08:35.010Z,23.66
2018-05-31T12:09:35.020Z,24.53
2018-05-31T12:10:35.042Z,25.08
2018-05-31T12:11:35.087Z,25.10
2018-05-31T12:12:35.080Z,25.51
2018-05-31T12:13:35.103Z,26.01
2018-05-31T12:14:35.124Z,25.70
2018-05-31T12:15:35.144Z,26.33
2018-05-31T12:16:35.161Z,26.97
2018-05-31T12:17:35.274Z,26.63
2018-05-31T12:18:35.209Z,25.52
2018-05-31T12:19:35.228Z,25.51
2018-05-31T12:20:35.259Z,25.00
2018-05-31T12:21:35.277Z,24.61
2018-05-31T12:22:35.297Z,23.63
2018-05-31T12:23:35.321Z,23.22
2018-05-31T12:24:35.387Z,22.75
2018-05-31T12:25:35.421Z,22.67
2018-05-31T12:26:35.386Z,22.67
2018-05-31T12:27:35.401Z,22.67
2018-05-31T12:28:35.423Z,22.64
2018-05-31T12:29:35.499Z,22.94
2018-05-31T12:30:35.467Z,22.75
2018-05-31T12:31:35.491Z,23.83
2018-05-31T12:32:35.527Z,24.60
2018-05-31T12:33:35.535Z,25.05
2018-05-31T12:34:35.554Z,24.50
2018-05-31T12:35:35.627Z,24.99
2018-05-31T12:36:35.596Z,24.16
2018-05-31T12:37:35.625Z,23.90
2018-05-31T12:38:35.650Z,23.23
2018-05-31T12:39:35.668Z,23.07
2018-05-31T12:40:35.682Z,23.17
2018-05-31T12:41:35.704Z,23.12
2018-05-31T12:42:35.777Z,23.61
2018-05-31T12:43:35.753Z,24.02
2018-05-31T12:44:35.774Z,24.73
2018-05-31T12:45:35.790Z,24.93
2018-05-31T12:46:35.811Z,24.84
2018-05-31T12:47:35.889Z,25.35
2018-05-31T12:48:35.913Z,24.57
2018-05-31T12:49:35.885Z,23.98
2018-05-31T12:50:35.901Z,23.33
2018-05-31T12:51:35.920Z,22.35
2018-05-31T12:52:35.954Z,22.18
2018-05-31T12:53:36.036Z,21.75
2018-05-31T12:54:35.998Z,21.65